Time;durP1;ratioP1;P1;durP2;ratioP2;P2;SDS_P1;SDS_P2;PMS_P1;PMS_P2;Temp;Humidity;BMP_temperature;BMP_pressure;BME280_temperature;BME280_humidity;BME280_pressure;Samples;Min_cycle;Max_cycle;Signal;HPM_P1;HPM_P2
2023/10/28 00:01:12;;;;;;;5.70;2.87;;;11.10;99.90;;;;;;4987864;28;20428;-65
2023/10/28 00:03:38;;;;;;;5.60;2.97;;;11.10;99.90;;;;;;4987756;28;20529;-65
2023/10/28 00:06:04;;;;;;;5.07;2.40;;;11.10;99.90;;;;;;4987805;28;21232;-65
2023/10/28 00:08:30;;;;;;;8.00;2.73;;;11.10;99.90;;;;;;4987479;28;21451;-66
2023/10/28 00:10:56;;;;;;;3.77;3.37;;;11.10;99.90;;;;;;4985585;28;20520;-66
2023/10/28 00:13:22;;;;;;;7.63;2.80;;;11.10;99.90;;;;;;4986379;28;20187;-65
2023/10/28 00:15:48;;;;;;;4.07;2.40;;;11.10;99.90;;;;;;4988636;28;20435;-65
2023/10/28 00:18:14;;;;;;;3.67;3.10;;;11.10;99.90;;;;;;4986630;28;20406;-67
2023/10/28 00:20:41;;;;;;;6.63;2.60;;;11.10;99.90;;;;;;4989151;28;20840;-65
2023/10/28 00:23:08;;;;;;;3.40;2.60;;;11.20;99.90;;;;;;4985918;28;20440;-63
2023/10/28 00:25:34;;;;;;;2.60;2.07;;;11.10;99.90;;;;;;4988824;28;20423;-67
2023/10/28 00:28:00;;;;;;;4.67;2.70;;;11.10;99.90;;;;;;4987260;28;21236;-64
2023/10/28 00:30:26;;;;;;;2.60;2.40;;;11.10;99.90;;;;;;4989151;28;20485;-63
2023/10/28 00:32:53;;;;;;;5.07;2.93;;;11.10;99.90;;;;;;4985530;28;20803;-66
2023/10/28 00:35:21;;;;;;;5.20;2.70;;;11.10;99.90;;;;;;4987337;28;20538;-66
2023/10/28 00:37:47;;;;;;;4.67;2.80;;;11.00;99.90;;;;;;5002259;28;20449;-65
2023/10/28 00:40:13;;;;;;;5.10;2.77;;;11.10;99.90;;;;;;4986667;28;20426;-65
2023/10/28 00:42:39;;;;;;;3.83;2.53;;;11.10;99.90;;;;;;4987899;28;20434;-66
2023/10/28 00:45:11;;;;;;;9.30;2.77;;;11.10;99.90;;;;;;4978875;28;20215;-66
2023/10/28 00:47:45;;;;;;;5.03;2.30;;;11.10;99.90;;;;;;4988874;28;20183;-66
2023/10/28 00:50:14;;;;;;;4.23;2.10;;;11.10;99.90;;;;;;4988727;28;20492;-64
2023/10/28 00:52:43;;;;;;;3.10;2.50;;;11.20;99.90;;;;;;4988651;28;21005;-63
2023/10/28 00:55:10;;;;;;;4.13;2.30;;;11.20;99.90;;;;;;4987978;28;20431;-65
2023/10/28 00:57:38;;;;;;;4.30;1.80;;;11.20;99.90;;;;;;4987825;28;20427;-64
2023/10/28 01:00:06;;;;;;;5.53;2.33;;;11.20;99.90;;;;;;4988680;28;20489;-67
2023/10/28 01:02:37;;;;;;;7.40;2.53;;;11.20;99.90;;;;;;4987840;28;21319;-66
2023/10/28 01:05:04;;;;;;;5.17;2.53;;;11.10;99.90;;;;;;4988211;28;20429;-65
2023/10/28 01:07:31;;;;;;;3.13;2.30;;;11.00;99.90;;;;;;4985992;28;20898;-66
2023/10/28 01:09:57;;;;;;;4.73;2.07;;;11.00;99.90;;;;;;4986093;28;20481;-65
2023/10/28 01:12:23;;;;;;;2.73;2.40;;;11.00;99.90;;;;;;4990281;28;20422;-66
2023/10/28 01:14:53;;;;;;;7.07;2.40;;;11.00;99.90;;;;;;4991391;28;20247;-66
2023/10/28 01:17:21;;;;;;;3.80;2.53;;;11.00;99.90;;;;;;4992186;28;20485;-63
2023/10/28 01:19:47;;;;;;;6.37;2.40;;;11.00;99.90;;;;;;4989606;28;21016;-64
2023/10/28 01:22:13;;;;;;;3.77;1.87;;;11.10;99.90;;;;;;4990307;28;20462;-65
2023/10/28 01:24:39;;;;;;;7.20;2.30;;;11.10;99.90;;;;;;4988789;28;20937;-65
2023/10/28 01:27:05;;;;;;;2.73;2.03;;;11.10;99.90;;;;;;4990411;28;20495;-64
2023/10/28 01:29:33;;;;;;;7.33;2.40;;;11.10;99.90;;;;;;4989439;28;20475;-63
2023/10/28 01:31:59;;;;;;;7.90;2.00;;;11.10;99.90;;;;;;4989706;28;20553;-65
2023/10/28 01:34:24;;;;;;;5.20;2.53;;;11.10;99.90;;;;;;4988216;28;20434;-66
2023/10/28 01:36:50;;;;;;;4.77;2.43;;;11.10;99.90;;;;;;4989999;28;20443;-63
2023/10/28 01:39:16;;;;;;;8.00;3.17;;;11.20;99.90;;;;;;4989660;28;21029;-67
2023/10/28 01:41:42;;;;;;;2.60;2.20;;;11.20;99.90;;;;;;4989358;28;20431;-65
2023/10/28 01:44:08;;;;;;;3.70;2.10;;;11.30;99.90;;;;;;4989039;28;20245;-67
2023/10/28 01:46:34;;;;;;;6.30;3.20;;;11.30;99.90;;;;;;4979434;28;20434;-65
2023/10/28 01:49:00;;;;;;;4.53;2.20;;;11.30;99.90;;;;;;4990055;28;20986;-64
2023/10/28 01:51:26;;;;;;;4.90;2.37;;;11.30;99.90;;;;;;4988614;28;20236;-64
2023/10/28 01:53:52;;;;;;;3.53;1.90;;;11.30;99.90;;;;;;4989002;28;20591;-66
2023/10/28 01:56:18;;;;;;;3.67;1.90;;;11.30;99.90;;;;;;4989755;28;20187;-64
2023/10/28 01:58:44;;;;;;;4.87;1.80;;;11.20;99.90;;;;;;4989047;28;20186;-66
2023/10/28 02:01:09;;;;;;;6.60;1.80;;;11.30;99.90;;;;;;4989724;28;20191;-65
2023/10/28 02:03:35;;;;;;;3.80;1.70;;;11.30;99.90;;;;;;4988171;28;20218;-63
2023/10/28 02:06:01;;;;;;;2.20;1.50;;;11.30;99.90;;;;;;4989278;28;20179;-64
2023/10/28 02:08:27;;;;;;;5.20;2.13;;;11.30;99.90;;;;;;4989323;28;20238;-64
2023/10/28 02:10:52;;;;;;;4.50;1.30;;;11.30;99.90;;;;;;4988459;28;20298;-65
2023/10/28 02:13:18;;;;;;;3.20;1.30;;;11.30;99.90;;;;;;4991868;28;20252;-65
2023/10/28 02:15:51;;;;;;;3.50;1.93;;;11.30;99.90;;;;;;4991906;28;20241;-63
2023/10/28 02:18:18;;;;;;;1.77;1.47;;;11.30;99.90;;;;;;4992360;28;20524;-63
2023/10/28 02:20:44;;;;;;;3.20;1.33;;;11.30;99.90;;;;;;4992648;28;20915;-66
2023/10/28 02:23:16;;;;;;;2.93;1.40;;;11.30;99.90;;;;;;4992505;28;20429;-66
2023/10/28 02:25:42;;;;;;;4.83;1.60;;;11.30;99.90;;;;;;4992563;28;20434;-65
2023/10/28 02:28:11;;;;;;;3.10;1.73;;;11.30;99.90;;;;;;4993193;28;20523;-65
2023/10/28 02:30:39;;;;;;;2.50;1.20;;;11.30;99.90;;;;;;4993075;28;20437;-64
2023/10/28 02:33:04;;;;;;;2.17;1.23;;;11.30;99.90;;;;;;4993573;28;21137;-66
2023/10/28 02:35:30;;;;;;;2.47;1.13;;;11.30;99.90;;;;;;4994892;28;20434;-65
2023/10/28 02:37:56;;;;;;;2.00;1.20;;;11.20;99.90;;;;;;4996236;28;20191;-64
2023/10/28 02:40:21;;;;;;;4.57;1.53;;;11.20;99.90;;;;;;4993474;28;20211;-63
2023/10/28 02:42:47;;;;;;;1.40;1.03;;;11.20;99.90;;;;;;4991237;28;20195;-65
2023/10/28 02:45:14;;;;;;;1.83;1.50;;;11.20;99.90;;;;;;4991569;28;20209;-67
2023/10/28 02:47:40;;;;;;;3.13;1.60;;;11.30;99.90;;;;;;4992192;28;20922;-64
2023/10/28 02:50:07;;;;;;;2.10;1.50;;;11.30;99.90;;;;;;4992875;28;20477;-63
2023/10/28 02:52:32;;;;;;;1.90;1.20;;;11.30;99.90;;;;;;4991526;28;20179;-63
2023/10/28 02:54:58;;;;;;;2.43;1.37;;;11.30;99.90;;;;;;4991280;28;20777;-64
2023/10/28 02:57:24;;;;;;;1.63;1.53;;;11.30;99.90;;;;;;4992471;28;20240;-67
2023/10/28 02:59:49;;;;;;;2.60;1.90;;;11.30;99.90;;;;;;4991194;28;20195;-66
2023/10/28 03:02:16;;;;;;;3.50;1.73;;;11.30;99.90;;;;;;4992384;28;20187;-65
2023/10/28 03:04:42;;;;;;;2.30;1.30;;;11.30;99.90;;;;;;4989924;28;20188;-64
2023/10/28 03:07:08;;;;;;;3.43;1.40;;;11.30;99.90;;;;;;4990767;28;20485;-66
2023/10/28 03:09:33;;;;;;;4.23;1.53;;;11.30;99.90;;;;;;4992425;28;20659;-67
2023/10/28 03:11:59;;;;;;;4.00;1.73;;;11.20;99.90;;;;;;4991192;28;20196;-65
2023/10/28 03:14:24;;;;;;;2.80;1.47;;;11.20;99.90;;;;;;4990458;28;20194;-64
2023/10/28 03:16:51;;;;;;;2.63;1.87;;;11.20;99.90;;;;;;4990889;28;20187;-66
2023/10/28 03:19:16;;;;;;;2.73;1.70;;;11.20;99.90;;;;;;4992267;28;20704;-64
2023/10/28 03:21:42;;;;;;;2.93;2.00;;;11.20;99.90;;;;;;4991563;28;20435;-64
2023/10/28 03:24:08;;;;;;;3.47;2.00;;;11.20;99.90;;;;;;4989610;28;20187;-63
2023/10/28 03:26:34;;;;;;;3.77;2.20;;;11.30;99.90;;;;;;4991605;28;20723;-63
2023/10/28 03:28:59;;;;;;;2.37;2.17;;;11.30;99.90;;;;;;4990976;28;20467;-63
2023/10/28 03:31:28;;;;;;;3.20;2.00;;;11.30;99.90;;;;;;4991479;28;20194;-64
2023/10/28 03:33:54;;;;;;;3.73;2.47;;;11.30;99.90;;;;;;5004344;28;20557;-65
2023/10/28 03:36:20;;;;;;;2.70;2.50;;;11.30;99.90;;;;;;4991630;28;20437;-66
2023/10/28 03:38:45;;;;;;;3.13;2.17;;;11.20;99.90;;;;;;4988399;28;20446;-63
2023/10/28 03:41:12;;;;;;;3.30;2.00;;;11.20;99.90;;;;;;4989656;28;21878;-64
2023/10/28 03:43:38;;;;;;;3.07;2.23;;;11.30;99.90;;;;;;4990432;28;20233;-64
2023/10/28 03:46:04;;;;;;;5.30;2.47;;;11.30;99.90;;;;;;4988805;28;20433;-66
2023/10/28 03:48:30;;;;;;;2.97;2.07;;;11.30;99.90;;;;;;4991659;28;20470;-63
2023/10/28 03:51:04;;;;;;;2.80;2.33;;;11.30;99.90;;;;;;4989670;28;20521;-65
2023/10/28 03:53:30;;;;;;;3.30;2.13;;;11.30;99.90;;;;;;4990806;28;20427;-64
2023/10/28 03:55:56;;;;;;;3.40;2.00;;;11.30;99.90;;;;;;4990666;28;20433;-62
2023/10/28 03:58:22;;;;;;;6.60;2.50;;;11.30;99.90;;;;;;4991026;28;20883;-63
2023/10/28 04:00:54;;;;;;;3.60;2.23;;;11.30;99.90;;;;;;4992600;28;20432;-64
2023/10/28 04:03:21;;;;;;;4.23;2.27;;;11.30;99.90;;;;;;4991362;28;20435;-65
2023/10/28 04:05:48;;;;;;;3.00;2.00;;;11.30;99.90;;;;;;4990515;28;21202;-64
2023/10/28 04:08:13;;;;;;;1.90;1.63;;;11.30;99.90;;;;;;4989580;28;20473;-63
2023/10/28 04:10:39;;;;;;;4.00;2.20;;;11.30;99.90;;;;;;4990495;28;21260;-64
2023/10/28 04:13:05;;;;;;;2.60;2.17;;;11.30;99.90;;;;;;4989389;28;20222;-64
2023/10/28 04:15:30;;;;;;;4.97;2.10;;;11.30;99.90;;;;;;4989665;28;20653;-65
2023/10/28 04:17:56;;;;;;;3.10;2.13;;;11.30;99.90;;;;;;4990424;28;20290;-65
2023/10/28 04:20:22;;;;;;;2.27;1.80;;;11.30;99.90;;;;;;4990082;28;20191;-65
2023/10/28 04:22:48;;;;;;;3.30;2.07;;;11.30;99.90;;;;;;4990011;28;20271;-66
2023/10/28 04:25:14;;;;;;;4.20;2.03;;;11.30;99.90;;;;;;4986581;28;20445;-66
2023/10/28 04:27:40;;;;;;;2.30;1.97;;;11.30;99.90;;;;;;4990254;28;20267;-66
2023/10/28 04:30:10;;;;;;;3.13;1.90;;;11.30;99.90;;;;;;4989411;28;20570;-65
2023/10/28 04:32:37;;;;;;;2.70;1.97;;;11.30;99.90;;;;;;4990338;28;20569;-66
2023/10/28 04:35:03;;;;;;;3.13;1.83;;;11.20;99.90;;;;;;4987937;28;20841;-63
2023/10/28 04:37:28;;;;;;;2.43;1.70;;;11.20;99.90;;;;;;4987611;28;20438;-64
2023/10/28 04:39:54;;;;;;;2.70;2.07;;;11.30;99.90;;;;;;4988797;28;20974;-64
2023/10/28 04:42:20;;;;;;;3.33;2.13;;;11.30;99.90;;;;;;5004370;28;20223;-64
2023/10/28 04:44:45;;;;;;;2.20;2.00;;;11.30;99.90;;;;;;4988854;28;20219;-63
2023/10/28 04:47:11;;;;;;;4.10;2.13;;;11.30;99.90;;;;;;4988862;28;20187;-66
2023/10/28 04:49:39;;;;;;;2.03;1.90;;;11.30;99.90;;;;;;4990046;28;20265;-62
2023/10/28 04:52:11;;;;;;;4.90;2.27;;;11.30;99.90;;;;;;4988024;28;20442;-63
2023/10/28 04:54:38;;;;;;;2.60;1.70;;;11.30;99.90;;;;;;5003642;28;20444;-66
2023/10/28 04:57:04;;;;;;;2.20;1.73;;;11.20;99.90;;;;;;4988151;28;20422;-63
2023/10/28 04:59:30;;;;;;;2.80;1.70;;;11.30;99.90;;;;;;4989864;28;20430;-63
2023/10/28 05:01:56;;;;;;;3.00;1.60;;;11.20;99.90;;;;;;4989406;28;20186;-65
2023/10/28 05:04:24;;;;;;;2.10;1.90;;;11.20;99.90;;;;;;4988037;28;20310;-65
2023/10/28 05:06:51;;;;;;;2.20;1.67;;;11.20;99.90;;;;;;4989150;28;20427;-67
2023/10/28 05:09:20;;;;;;;1.90;1.57;;;11.10;99.90;;;;;;4987567;28;20516;-64
2023/10/28 05:11:46;;;;;;;4.13;1.80;;;11.10;99.90;;;;;;4988145;28;20430;-65
2023/10/28 05:14:14;;;;;;;3.13;1.77;;;11.20;99.90;;;;;;4986337;28;20434;-63
2023/10/28 05:16:39;;;;;;;4.50;1.83;;;11.20;99.90;;;;;;4988654;28;20493;-63
2023/10/28 05:19:06;;;;;;;2.73;1.60;;;11.20;99.90;;;;;;4989586;28;20443;-63
2023/10/28 05:21:31;;;;;;;2.00;1.30;;;11.10;99.90;;;;;;5005139;28;20446;-63
2023/10/28 05:23:57;;;;;;;3.17;1.63;;;11.10;99.90;;;;;;4989238;28;20425;-64
2023/10/28 05:26:23;;;;;;;4.43;1.77;;;11.10;99.90;;;;;;4984946;28;20187;-66
2023/10/28 05:28:50;;;;;;;2.00;1.67;;;11.10;99.90;;;;;;4986917;28;20333;-65
2023/10/28 05:31:16;;;;;;;3.67;1.40;;;11.10;99.90;;;;;;4988068;28;20191;-66
2023/10/28 05:33:41;;;;;;;2.70;2.50;;;11.10;99.90;;;;;;4983049;28;20458;-65
2023/10/28 05:36:07;;;;;;;1.70;1.40;;;11.10;99.90;;;;;;4984262;28;20188;-66
2023/10/28 05:38:33;;;;;;;1.33;0.97;;;11.10;99.90;;;;;;4988127;28;20212;-66
2023/10/28 05:40:58;;;;;;;1.77;1.33;;;11.00;99.90;;;;;;4985992;28;20283;-68
2023/10/28 05:43:24;;;;;;;1.73;1.30;;;11.10;99.90;;;;;;4985058;28;20199;-64
2023/10/28 05:45:49;;;;;;;1.83;1.60;;;11.00;99.90;;;;;;4988175;28;20190;-62
2023/10/28 05:48:17;;;;;;;5.30;1.70;;;11.10;99.90;;;;;;4990932;28;20225;-63
2023/10/28 05:50:42;;;;;;;3.40;1.87;;;11.10;99.90;;;;;;4991294;28;20333;-64
2023/10/28 05:53:08;;;;;;;4.03;1.57;;;11.10;99.90;;;;;;4989755;28;20930;-65
2023/10/28 05:55:34;;;;;;;1.77;1.43;;;11.10;99.90;;;;;;5004069;28;20928;-66
2023/10/28 05:57:59;;;;;;;1.47;1.37;;;11.10;99.90;;;;;;4988872;28;20196;-65
2023/10/28 06:00:25;;;;;;;3.03;1.50;;;11.20;99.90;;;;;;4990389;28;20286;-66
2023/10/28 06:02:51;;;;;;;2.17;1.40;;;11.10;99.90;;;;;;4990709;28;20222;-66
2023/10/28 06:05:16;;;;;;;3.10;1.73;;;11.10;99.90;;;;;;4989991;28;20557;-66
2023/10/28 06:07:47;;;;;;;1.40;1.30;;;11.10;99.90;;;;;;4989842;28;20222;-63
2023/10/28 06:10:13;;;;;;;2.93;1.80;;;11.10;99.90;;;;;;4991622;28;20305;-65
2023/10/28 06:12:39;;;;;;;2.60;1.60;;;11.20;99.90;;;;;;4991585;28;20435;-66
2023/10/28 06:15:06;;;;;;;1.30;1.20;;;11.20;99.90;;;;;;4990153;28;20427;-63
2023/10/28 06:17:31;;;;;;;2.97;1.70;;;11.10;99.90;;;;;;4988974;28;20288;-66
2023/10/28 06:19:59;;;;;;;2.17;1.80;;;11.10;99.90;;;;;;4989977;28;21177;-65
2023/10/28 06:22:24;;;;;;;3.40;1.70;;;11.10;99.90;;;;;;4990252;28;20342;-63
2023/10/28 06:24:50;;;;;;;3.37;1.57;;;11.10;99.90;;;;;;4989128;28;20438;-64
2023/10/28 06:27:16;;;;;;;3.43;1.63;;;11.10;99.90;;;;;;4990581;28;20202;-66
2023/10/28 06:29:41;;;;;;;2.83;1.40;;;11.10;99.90;;;;;;4991007;28;20978;-64
2023/10/28 06:32:08;;;;;;;1.90;1.30;;;11.10;99.90;;;;;;4990029;28;20643;-64
2023/10/28 06:34:34;;;;;;;3.70;1.53;;;11.20;99.90;;;;;;4990520;28;20642;-65
2023/10/28 06:37:00;;;;;;;1.53;1.30;;;11.20;99.90;;;;;;4990004;28;20538;-63
2023/10/28 06:39:26;;;;;;;2.00;1.43;;;11.20;99.90;;;;;;4990732;28;20230;-63
2023/10/28 06:41:51;;;;;;;1.50;1.17;;;11.20;99.90;;;;;;4991701;28;20533;-66
2023/10/28 06:44:19;;;;;;;1.77;1.20;;;11.20;99.90;;;;;;4992044;28;20206;-65
2023/10/28 06:46:45;;;;;;;3.17;1.53;;;11.20;99.90;;;;;;4993015;28;20226;-63
2023/10/28 06:49:11;;;;;;;2.30;1.30;;;11.20;99.90;;;;;;4990892;28;21210;-65
2023/10/28 06:51:37;;;;;;;1.73;1.10;;;11.20;99.90;;;;;;4990285;28;20187;-65
2023/10/28 06:54:04;;;;;;;1.73;1.10;;;11.20;99.90;;;;;;4989305;28;20488;-63
2023/10/28 06:56:30;;;;;;;3.77;1.20;;;11.30;99.90;;;;;;4989219;28;20485;-63
2023/10/28 06:58:56;;;;;;;10.70;1.60;;;11.20;99.90;;;;;;4988780;28;20434;-64
2023/10/28 07:01:21;;;;;;;2.60;1.20;;;11.30;99.90;;;;;;4990869;28;20453;-66
2023/10/28 07:03:47;;;;;;;4.30;1.60;;;11.20;99.90;;;;;;4985992;28;20479;-66
2023/10/28 07:06:17;;;;;;;1.93;1.20;;;11.30;99.90;;;;;;4989175;28;20187;-64
2023/10/28 07:08:44;;;;;;;2.00;1.20;;;11.30;99.90;;;;;;4989101;28;20510;-63
2023/10/28 07:11:13;;;;;;;1.53;1.00;;;11.30;99.90;;;;;;4987967;28;20436;-66
2023/10/28 07:13:39;;;;;;;1.13;1.03;;;11.30;99.90;;;;;;4987293;28;21116;-65
2023/10/28 07:16:06;;;;;;;3.03;1.30;;;11.30;99.90;;;;;;4988493;28;20924;-64
2023/10/28 07:18:32;;;;;;;1.20;1.10;;;11.30;99.90;;;;;;4987401;28;20431;-65
2023/10/28 07:21:00;;;;;;;1.70;1.30;;;11.30;99.90;;;;;;4990667;28;20440;-64
2023/10/28 07:23:30;;;;;;;1.53;1.03;;;11.30;99.90;;;;;;4988898;28;20434;-64
2023/10/28 07:25:56;;;;;;;2.20;1.30;;;11.30;99.90;;;;;;4988015;28;20453;-65
2023/10/28 07:28:24;;;;;;;2.23;1.47;;;11.30;99.90;;;;;;4990353;28;20478;-64
2023/10/28 07:30:51;;;;;;;2.07;1.10;;;11.30;99.90;;;;;;4984095;28;20439;-64
2023/10/28 07:33:21;;;;;;;1.63;1.37;;;11.30;99.90;;;;;;4986379;28;20435;-66
2023/10/28 07:35:48;;;;;;;2.20;1.20;;;11.40;99.90;;;;;;4987051;28;20542;-67
2023/10/28 07:38:15;;;;;;;3.37;1.33;;;11.40;99.90;;;;;;4987186;28;20446;-65
2023/10/28 07:40:41;;;;;;;2.00;1.20;;;11.40;99.90;;;;;;4987404;28;20435;-66
2023/10/28 07:43:08;;;;;;;2.50;1.07;;;11.50;99.90;;;;;;4982180;28;20443;-67
2023/10/28 07:45:34;;;;;;;1.90;1.50;;;11.50;99.90;;;;;;4989194;28;20439;-66
2023/10/28 07:48:00;;;;;;;0.97;0.87;;;11.60;99.90;;;;;;4989082;28;20441;-63
2023/10/28 07:50:26;;;;;;;2.00;1.07;;;11.70;99.90;;;;;;4987572;28;20346;-65
2023/10/28 07:52:51;;;;;;;1.57;1.23;;;11.80;99.90;;;;;;4985741;28;20188;-63
2023/10/28 07:55:17;;;;;;;1.10;0.80;;;12.00;99.90;;;;;;4987327;28;20191;-66
2023/10/28 07:57:46;;;;;;;2.03;0.87;;;12.30;99.90;;;;;;4988641;28;20186;-65
2023/10/28 08:00:13;;;;;;;1.60;0.90;;;12.50;99.90;;;;;;4989270;28;20458;-66
2023/10/28 08:02:44;;;;;;;2.10;0.80;;;12.50;99.90;;;;;;4989094;28;20434;-64
2023/10/28 08:05:10;;;;;;;0.90;0.70;;;12.40;99.90;;;;;;4990460;28;20765;-65
2023/10/28 08:07:37;;;;;;;1.27;1.00;;;12.40;99.90;;;;;;4989832;28;20430;-65
2023/10/28 08:10:04;;;;;;;2.40;1.17;;;12.30;99.90;;;;;;4991640;28;20594;-63
2023/10/28 08:12:30;;;;;;;1.00;0.77;;;12.30;99.90;;;;;;4990460;28;20425;-66
2023/10/28 08:14:56;;;;;;;0.80;0.70;;;12.20;99.90;;;;;;4986765;28;20667;-66
2023/10/28 08:17:22;;;;;;;1.80;0.80;;;12.20;99.90;;;;;;4987122;28;20447;-66
2023/10/28 08:19:48;;;;;;;1.17;1.00;;;12.10;99.90;;;;;;4981684;28;21304;-66
2023/10/28 08:22:14;;;;;;;2.70;1.17;;;12.10;99.90;;;;;;4987764;28;20671;-65
2023/10/28 08:24:41;;;;;;;1.00;0.90;;;12.10;99.90;;;;;;4985819;28;20659;-67
2023/10/28 08:27:08;;;;;;;1.47;0.80;;;12.00;99.90;;;;;;4989104;28;20418;-65
2023/10/28 08:29:34;;;;;;;3.63;0.83;;;12.00;99.90;;;;;;4989925;28;20470;-67
2023/10/28 08:32:00;;;;;;;0.83;0.83;;;12.00;99.90;;;;;;4988818;28;20430;-67
2023/10/28 08:34:26;;;;;;;5.17;1.30;;;12.00;99.90;;;;;;4988290;28;20446;-67
2023/10/28 08:36:55;;;;;;;2.10;0.70;;;12.00;99.90;;;;;;4985676;28;20274;-64
2023/10/28 08:39:20;;;;;;;0.90;0.80;;;12.00;99.90;;;;;;4988100;28;20867;-65
2023/10/28 08:41:47;;;;;;;0.93;0.73;;;12.00;99.90;;;;;;4988562;28;20533;-65
2023/10/28 08:44:17;;;;;;;0.90;0.77;;;12.00;99.90;;;;;;4991176;28;20200;-64
2023/10/28 08:46:45;;;;;;;2.00;0.83;;;11.90;99.90;;;;;;4989939;28;20447;-63
2023/10/28 08:49:14;;;;;;;4.13;0.77;;;11.90;99.90;;;;;;4990577;28;21266;-65
2023/10/28 08:51:48;;;;;;;1.07;0.97;;;12.00;99.90;;;;;;4991320;28;20462;-65
2023/10/28 08:54:16;;;;;;;1.43;0.60;;;12.00;99.90;;;;;;4991359;28;20426;-67
2023/10/28 08:56:46;;;;;;;3.33;0.87;;;12.00;99.90;;;;;;4990928;28;21371;-64
2023/10/28 08:59:12;;;;;;;1.13;0.70;;;12.00;99.90;;;;;;4988272;28;20449;-64
2023/10/28 09:01:39;;;;;;;1.97;0.60;;;12.00;99.90;;;;;;4990661;28;20454;-65
2023/10/28 09:04:05;;;;;;;1.67;0.70;;;12.00;99.90;;;;;;4990318;28;20237;-64
2023/10/28 09:06:31;;;;;;;1.60;0.80;;;12.10;99.90;;;;;;4991716;28;20980;-65
2023/10/28 09:08:58;;;;;;;1.70;0.77;;;12.10;99.90;;;;;;4989588;28;21300;-65
2023/10/28 09:11:24;;;;;;;0.80;0.63;;;12.10;99.90;;;;;;4991428;28;20478;-64
2023/10/28 09:13:50;;;;;;;1.60;0.80;;;12.10;99.90;;;;;;4990875;28;20434;-64
2023/10/28 09:16:15;;;;;;;1.80;0.83;;;12.20;99.90;;;;;;4991313;28;20555;-65
2023/10/28 09:18:42;;;;;;;2.90;1.33;;;12.20;99.90;;;;;;4990163;28;20284;-64
2023/10/28 09:21:09;;;;;;;1.90;0.70;;;12.20;99.90;;;;;;4989887;28;20183;-66
2023/10/28 09:23:39;;;;;;;0.70;0.50;;;12.20;99.90;;;;;;4989509;28;20443;-63
2023/10/28 09:26:06;;;;;;;4.30;0.97;;;12.20;99.90;;;;;;4990846;28;20435;-64
2023/10/28 09:28:32;;;;;;;1.60;0.70;;;12.20;99.90;;;;;;4989993;28;20485;-64
2023/10/28 09:30:59;;;;;;;2.87;0.90;;;12.20;99.90;;;;;;4987796;28;20447;-64
2023/10/28 09:33:25;;;;;;;1.60;0.70;;;12.20;99.90;;;;;;4988271;28;20191;-64
2023/10/28 09:35:55;;;;;;;2.40;0.87;;;12.20;99.90;;;;;;4987781;28;20795;-64
2023/10/28 09:38:22;;;;;;;2.47;0.90;;;12.30;99.90;;;;;;4991696;28;20521;-64
2023/10/28 09:40:48;;;;;;;0.97;0.60;;;12.30;99.90;;;;;;4989255;28;20445;-64
2023/10/28 09:43:18;;;;;;;1.30;0.77;;;12.40;99.90;;;;;;4991030;28;20530;-64
2023/10/28 09:45:49;;;;;;;1.00;0.90;;;12.40;99.90;;;;;;4988113;28;21270;-64
2023/10/28 09:48:18;;;;;;;1.90;1.07;;;12.40;99.90;;;;;;4990319;28;22325;-64
2023/10/28 09:50:48;;;;;;;1.83;0.77;;;12.40;99.90;;;;;;4988917;28;20431;-64
2023/10/28 09:53:17;;;;;;;1.13;0.63;;;12.40;99.90;;;;;;4990115;28;20427;-64
2023/10/28 09:55:44;;;;;;;1.10;0.70;;;12.40;99.90;;;;;;4990045;28;20929;-64
2023/10/28 09:58:41;;;;;;;1.07;0.77;;;12.40;99.90;;;;;;4990945;28;20426;-64
2023/10/28 10:01:07;;;;;;;2.23;0.80;;;12.40;99.90;;;;;;4985677;28;20914;-64
2023/10/28 10:03:49;;;;;;;1.43;0.63;;;12.50;99.90;;;;;;4989047;28;20443;-64
2023/10/28 10:06:15;;;;;;;1.70;0.90;;;12.50;99.90;;;;;;4989498;28;20435;-64
2023/10/28 10:08:52;;;;;;;1.13;0.73;;;12.50;99.90;;;;;;4988748;28;20488;-64
2023/10/28 10:11:25;;;;;;;1.10;0.87;;;12.50;99.90;;;;;;4988644;28;20532;-64
2023/10/28 10:13:52;;;;;;;2.20;1.10;;;12.50;99.90;;;;;;4988812;28;20457;-64
2023/10/28 10:16:34;;;;;;;1.10;0.90;;;12.50;99.90;;;;;;4989249;28;20426;-64
2023/10/28 10:19:10;;;;;;;1.00;0.90;;;12.60;99.90;;;;;;4984079;28;21016;-64
2023/10/28 10:21:36;;;;;;;1.80;1.30;;;12.50;99.90;;;;;;4988059;28;20916;-64
2023/10/28 10:24:06;;;;;;;1.30;1.20;;;12.60;99.90;;;;;;4986875;28;20545;-64
2023/10/28 10:26:33;;;;;;;1.60;1.23;;;12.60;99.90;;;;;;4977947;28;20271;-64
2023/10/28 10:29:00;;;;;;;1.30;0.90;;;12.60;99.90;;;;;;4986679;28;20532;-65
2023/10/28 10:31:31;;;;;;;1.13;0.77;;;12.60;99.90;;;;;;4986964;28;20442;-64
2023/10/28 10:34:08;;;;;;;1.53;0.80;;;12.70;99.90;;;;;;4989040;28;20438;-64
2023/10/28 10:36:41;;;;;;;1.23;0.90;;;12.70;99.90;;;;;;4990440;28;20454;-64
2023/10/28 10:39:18;;;;;;;1.10;0.70;;;12.80;99.90;;;;;;4991083;28;20437;-64
2023/10/28 10:41:54;;;;;;;1.53;0.70;;;12.80;99.90;;;;;;4986817;28;20573;-64
2023/10/28 10:44:24;;;;;;;0.83;0.57;;;12.80;99.90;;;;;;4988629;28;20450;-64
2023/10/28 10:46:53;;;;;;;1.20;0.80;;;12.80;99.90;;;;;;4990125;28;20430;-64
2023/10/28 10:49:19;;;;;;;1.67;0.93;;;12.80;99.90;;;;;;4991054;28;20473;-64
2023/10/28 10:51:45;;;;;;;2.17;0.93;;;12.90;99.90;;;;;;4985797;28;20505;-63
2023/10/28 10:54:11;;;;;;;1.33;0.80;;;12.90;99.90;;;;;;4988960;28;20430;-64
2023/10/28 10:56:36;;;;;;;1.40;0.90;;;13.00;99.90;;;;;;4989549;28;20442;-64
2023/10/28 10:59:03;;;;;;;1.70;0.97;;;13.00;99.90;;;;;;4988805;28;20465;-63
2023/10/28 11:01:29;;;;;;;1.37;1.07;;;13.00;99.90;;;;;;4971966;28;20349;-63
2023/10/28 11:03:57;;;;;;;2.27;0.80;;;13.10;99.90;;;;;;4988558;28;20853;-63
2023/10/28 11:06:23;;;;;;;2.63;0.90;;;13.20;99.90;;;;;;4991337;28;20532;-64
2023/10/28 11:08:49;;;;;;;0.80;0.63;;;13.30;99.90;;;;;;4990008;28;20504;-63
2023/10/28 11:11:15;;;;;;;1.00;0.73;;;13.40;99.90;;;;;;4991159;28;20427;-63
2023/10/28 11:13:40;;;;;;;1.80;0.80;;;13.40;99.90;;;;;;4988306;28;20305;-64
2023/10/28 11:16:22;;;;;;;4.20;1.17;;;13.50;99.90;;;;;;4989604;28;20924;-64
2023/10/28 11:18:47;;;;;;;1.47;1.00;;;13.60;99.90;;;;;;4989928;28;20238;-64
2023/10/28 11:21:13;;;;;;;2.93;0.90;;;13.70;99.90;;;;;;4988959;28;20430;-64
2023/10/28 11:23:39;;;;;;;2.47;0.87;;;13.70;99.90;;;;;;4989611;28;20183;-64
2023/10/28 11:26:05;;;;;;;4.03;0.80;;;13.80;99.90;;;;;;4988811;28;20773;-64
2023/10/28 11:28:32;;;;;;;3.20;1.20;;;14.00;99.90;;;;;;4987891;28;20549;-64
2023/10/28 11:30:59;;;;;;;2.13;0.93;;;14.10;99.90;;;;;;4986349;28;20195;-64
2023/10/28 11:33:27;;;;;;;1.47;0.83;;;14.20;99.90;;;;;;4988258;28;20429;-63
2023/10/28 11:35:53;;;;;;;1.43;0.83;;;14.20;99.90;;;;;;4987780;28;20458;-63
2023/10/28 11:38:19;;;;;;;1.83;1.07;;;14.20;99.90;;;;;;4989868;28;20619;-63
2023/10/28 11:40:45;;;;;;;2.00;0.90;;;14.20;99.90;;;;;;4989925;28;20195;-64
2023/10/28 11:43:15;;;;;;;1.30;0.97;;;14.20;99.90;;;;;;4989449;28;20430;-64
2023/10/28 11:45:41;;;;;;;1.23;0.80;;;14.10;99.90;;;;;;4991105;28;20434;-64
2023/10/28 11:48:08;;;;;;;1.83;0.90;;;14.20;99.90;;;;;;4989492;28;20933;-63
2023/10/28 11:50:35;;;;;;;2.27;0.90;;;14.10;99.90;;;;;;4990036;28;20219;-64
2023/10/28 11:53:00;;;;;;;3.10;1.33;;;14.10;99.90;;;;;;4986858;28;20434;-63
2023/10/28 11:55:26;;;;;;;2.03;1.17;;;14.10;99.90;;;;;;4989975;28;20505;-64
2023/10/28 11:57:52;;;;;;;3.03;1.43;;;14.00;99.90;;;;;;4989556;28;20186;-64
2023/10/28 12:00:17;;;;;;;4.20;1.20;;;13.90;99.90;;;;;;4989796;28;20238;-63
2023/10/28 12:02:44;;;;;;;2.70;1.27;;;13.90;99.90;;;;;;4988483;28;20191;-64
2023/10/28 12:05:09;;;;;;;3.37;1.70;;;13.80;99.90;;;;;;4987970;28;20215;-63
2023/10/28 12:07:35;;;;;;;2.43;1.50;;;13.80;99.90;;;;;;4990166;28;21071;-64
2023/10/28 12:10:06;;;;;;;2.73;1.20;;;13.80;99.90;;;;;;4986229;28;20214;-64
2023/10/28 12:12:32;;;;;;;2.13;1.50;;;13.80;99.90;;;;;;4989746;28;20226;-64
2023/10/28 12:14:58;;;;;;;4.57;1.67;;;13.80;99.90;;;;;;4983920;28;20546;-64
2023/10/28 12:17:23;;;;;;;4.90;1.63;;;13.90;99.90;;;;;;4988306;28;20188;-64
2023/10/28 12:19:49;;;;;;;4.10;1.50;;;14.00;99.90;;;;;;4989243;28;20253;-64
2023/10/28 12:22:15;;;;;;;6.07;1.80;;;14.00;99.90;;;;;;4988946;28;20237;-64
2023/10/28 12:24:40;;;;;;;3.40;1.60;;;14.10;99.90;;;;;;4988421;28;20249;-64
2023/10/28 12:27:06;;;;;;;5.37;1.80;;;14.10;99.90;;;;;;4988493;28;20593;-64
2023/10/28 12:29:32;;;;;;;2.83;1.67;;;14.10;99.90;;;;;;4989855;28;20214;-63
2023/10/28 12:31:57;;;;;;;2.93;1.40;;;14.10;99.90;;;;;;4989539;28;20246;-63
2023/10/28 12:34:23;;;;;;;2.80;1.43;;;14.10;99.90;;;;;;4987379;28;20233;-63
2023/10/28 12:36:49;;;;;;;7.70;1.70;;;14.10;99.90;;;;;;4989431;28;20195;-63
2023/10/28 12:39:17;;;;;;;2.00;1.20;;;14.20;99.90;;;;;;4989032;28;20661;-63
2023/10/28 12:41:44;;;;;;;3.67;1.63;;;14.20;99.90;;;;;;4990106;28;20198;-63
2023/10/28 12:44:11;;;;;;;2.60;1.47;;;14.20;99.90;;;;;;4987433;28;20438;-63
2023/10/28 12:46:36;;;;;;;2.33;1.10;;;14.30;99.90;;;;;;4989242;28;20730;-63